^^
Saratoga-Weather Station Historical Data
Daily Summary for April 9, 2021 Units:  English    Metric   Both
Daily Weekly Monthly Yearly Custom
  High: Low: Average:
Temperature: 81.1 °F 59.5 °F 70.3 °F
Dew Point: 62.2 °F 57.7 °F 60.1 °F
Humidity: 95% 48% 72%
Wind Speed: 8.1mph 0mph 1.5mph
Wind Gust: 9mph - -
Wind- - SW
Pressure: 30.1 in 30.1 in -
Precipitation: 0 in    
Historical Graphs
 
 
Tabular Data for April 9, 2021
Time Temperature Dew Point Pressure Wind Wind Speed Wind Gust Humidity Rainfall Rate (Hourly) solar
00:04 63.3 °F 61.9 °F 30.1 in Calm     95% 0 in 0 W/m2
00:09 63.3 °F 61.9 °F 30.1 in Calm     95% 0 in 0 W/m2
00:14 63.1 °F 61.7 °F 30.1 in Calm     95% 0 in 0 W/m2
00:19 63.1 °F 61.7 °F 30.1 in Calm     95% 0 in 0 W/m2
00:24 63.1 °F 61.7 °F 30.1 in Calm     95% 0 in 0 W/m2
00:29 63.1 °F 61.7 °F 30.1 in Calm     95% 0 in 0 W/m2
00:34 63.1 °F 61.7 °F 30.1 in Calm     95% 0 in 0 W/m2
00:39 63.1 °F 61.7 °F 30.1 in Calm     95% 0 in 0 W/m2
00:44 63.1 °F 61.7 °F 30.1 in Calm     95% 0 in 0 W/m2
00:49 63.1 °F 61.7 °F 30.1 in Calm     95% 0 in 0 W/m2
00:54 63 °F 61.5 °F 30.1 in Calm     95% 0 in 0 W/m2
00:59 62.8 °F 61.3 °F 30.1 in WSW 0.9 mph 2 mph 95% 0 in 0 W/m2
01:04 62.8 °F 61.3 °F 30.1 in Calm     95% 0 in 0 W/m2
01:09 62.4 °F 61 °F 30.1 in Calm     95% 0 in 0 W/m2
01:14 62.4 °F 61 °F 30.1 in Calm     95% 0 in 0 W/m2
01:19 62.4 °F 61 °F 30.1 in Calm     95% 0 in 0 W/m2
01:24 62.2 °F 60.8 °F 30.1 in Calm     95% 0 in 0 W/m2
01:29 62.2 °F 60.8 °F 30.1 in Calm     95% 0 in 0 W/m2
01:34 62.2 °F 60.8 °F 30.1 in Calm     95% 0 in 0 W/m2
01:39 62.2 °F 60.8 °F 30.1 in Calm     95% 0 in 0 W/m2
01:44 62.2 °F 60.8 °F 30.1 in Calm     95% 0 in 0 W/m2
01:49 62.2 °F 60.8 °F 30.1 in Calm   2 mph 95% 0 in 0 W/m2
01:54 62.1 °F 60.6 °F 30.1 in Calm   1 mph 95% 0 in 0 W/m2
01:59 62.1 °F 60.6 °F 30.1 in Calm   2 mph 95% 0 in 0 W/m2
02:04 62.1 °F 60.6 °F 30.1 in Calm   1 mph 95% 0 in 0 W/m2
02:09 62.1 °F 60.6 °F 30.1 in Calm   2 mph 95% 0 in 0 W/m2
02:14 62.2 °F 60.8 °F 30.1 in Calm     95% 0 in 0 W/m2
02:19 62.2 °F 60.4 °F 30.1 in Calm     94% 0 in 0 W/m2
02:24 62.2 °F 60.4 °F 30.1 in Calm     94% 0 in 0 W/m2
02:29 62.2 °F 60.4 °F 30.1 in Calm     94% 0 in 0 W/m2
02:34 62.2 °F 60.4 °F 30.1 in Calm     94% 0 in 0 W/m2
02:39 62.2 °F 60.4 °F 30.1 in Calm     94% 0 in 0 W/m2
02:44 62.2 °F 60.4 °F 30.1 in Calm     94% 0 in 0 W/m2
02:49 62.2 °F 60.4 °F 30.1 in Calm     94% 0 in 0 W/m2
02:54 62.2 °F 60.4 °F 30.1 in Calm     94% 0 in 0 W/m2
02:59 62.1 °F 60.3 °F 30.1 in Calm     94% 0 in 0 W/m2
03:04 62.1 °F 60.3 °F 30.1 in Calm     94% 0 in 0 W/m2
03:09 61.9 °F 60.1 °F 30.1 in Calm     94% 0 in 0 W/m2
03:14 61.7 °F 59.7 °F 30.1 in Calm     93% 0 in 0 W/m2
03:20 61.5 °F 59.5 °F 30.1 in Calm     93% 0 in 0 W/m2
03:25 61.5 °F 59.5 °F 30.1 in Calm     93% 0 in 0 W/m2
03:30 61.3 °F 59.5 °F 30.1 in Calm     94% 0 in 0 W/m2
03:35 61.3 °F 59.5 °F 30.1 in Calm     94% 0 in 0 W/m2
03:40 61.2 °F 59.2 °F 30.1 in Calm     93% 0 in 0 W/m2
03:45 61.2 °F 59.4 °F 30.1 in Calm     94% 0 in 0 W/m2
03:50 61 °F 59.2 °F 30.1 in Calm     94% 0 in 0 W/m2
03:55 61 °F 59.2 °F 30.1 in Calm     94% 0 in 0 W/m2
04:00 61 °F 59.2 °F 30.1 in Calm     94% 0 in 0 W/m2
04:05 60.8 °F 59 °F 30.1 in Calm     94% 0 in 0 W/m2
04:10 60.8 °F 59 °F 30.1 in Calm     94% 0 in 0 W/m2
04:15 60.8 °F 59 °F 30.1 in Calm     94% 0 in 0 W/m2
04:20 60.8 °F 59 °F 30.1 in West 0.9 mph 2 mph 94% 0 in 0 W/m2
04:25 60.8 °F 59 °F 30.1 in Calm     94% 0 in 0 W/m2
04:30 60.8 °F 59 °F 30.1 in West 2 mph 2 mph 94% 0 in 0 W/m2
04:35 60.8 °F 59 °F 30.1 in Calm     94% 0 in 0 W/m2
04:40 60.8 °F 59 °F 30.1 in Calm     94% 0 in 0 W/m2
04:45 60.6 °F 58.8 °F 30.1 in Calm     94% 0 in 0 W/m2
04:50 60.6 °F 58.8 °F 30.1 in Calm     94% 0 in 0 W/m2
04:55 60.6 °F 58.8 °F 30.1 in Calm     94% 0 in 0 W/m2
05:00 60.4 °F 58.6 °F 30.1 in Calm     94% 0 in 0 W/m2
05:05 60.4 °F 58.6 °F 30.1 in Calm     94% 0 in 0 W/m2
05:10 60.3 °F 58.5 °F 30.1 in Calm     94% 0 in 0 W/m2
05:15 60.3 °F 58.5 °F 30.1 in Calm     94% 0 in 0 W/m2
05:20 60.1 °F 58.3 °F 30.1 in Calm     94% 0 in 0 W/m2
05:25 59.9 °F 58.1 °F 30.1 in Calm     94% 0 in 0 W/m2
05:30 59.7 °F 57.9 °F 30.1 in Calm   1 mph 94% 0 in 0 W/m2
05:35 59.7 °F 57.9 °F 30.1 in Calm     94% 0 in 5 W/m2
05:40 59.7 °F 57.9 °F 30.1 in Calm     94% 0 in 7 W/m2
05:45 59.5 °F 57.7 °F 30.1 in Calm     94% 0 in 11 W/m2
05:50 59.7 °F 57.9 °F 30.1 in Calm     94% 0 in 16 W/m2
05:55 59.7 °F 57.9 °F 30.1 in Calm   1 mph 94% 0 in 18 W/m2
06:00 59.7 °F 57.9 °F 30.1 in Calm     94% 0 in 19 W/m2
06:05 59.7 °F 57.9 °F 30.1 in Calm     94% 0 in 23 W/m2
06:10 59.7 °F 57.9 °F 30.1 in Calm     94% 0 in 28 W/m2
06:15 59.7 °F 57.9 °F 30.1 in Calm     94% 0 in 35 W/m2
06:20 59.7 °F 57.9 °F 30.1 in Calm     94% 0 in 42 W/m2
06:25 59.7 °F 57.9 °F 30.1 in Calm     94% 0 in 49 W/m2
06:30 59.7 °F 57.9 °F 30.1 in Calm     94% 0 in 54 W/m2
06:35 59.9 °F 58.1 °F 30.1 in Calm     94% 0 in 53 W/m2
06:40 59.9 °F 58.1 °F 30.1 in Calm     94% 0 in 49 W/m2
06:45 60.1 °F 58.3 °F 30.1 in Calm   2 mph 94% 0 in 40 W/m2
06:50 60.3 °F 58.8 °F 30.1 in Calm     95% 0 in 44 W/m2
06:55 60.4 °F 58.6 °F 30.1 in Calm   2 mph 94% 0 in 53 W/m2
07:00 60.6 °F 58.8 °F 30.1 in NE 0.9 mph 2 mph 94% 0 in 54 W/m2
07:05 60.8 °F 59 °F 30.1 in ESE 0.9 mph 3 mph 94% 0 in 58 W/m2
07:10 61 °F 59 °F 30.1 in East 2 mph 3 mph 93% 0 in 63 W/m2
07:15 61.3 °F 59.4 °F 30.1 in East 2.9 mph 4 mph 93% 0 in 67 W/m2
07:20 61.5 °F 59.5 °F 30.1 in East 2.9 mph 4 mph 93% 0 in 70 W/m2
07:25 61.5 °F 59.2 °F 30.1 in East 2 mph 3 mph 92% 0 in 74 W/m2
07:30 61.7 °F 59.4 °F 30.1 in East 2 mph 3 mph 92% 0 in 76 W/m2
07:35 61.9 °F 59.5 °F 30.1 in East 2 mph 2 mph 92% 0 in 83 W/m2
07:40 61.9 °F 59.2 °F 30.1 in Calm   2 mph 91% 0 in 139 W/m2
07:45 62.2 °F 59.5 °F 30.1 in East 0.9 mph 1 mph 91% 0 in 199 W/m2
07:50 62.6 °F 59.9 °F 30.1 in Calm   2 mph 91% 0 in 209 W/m2
07:55 63.1 °F 59.9 °F 30.1 in Calm   2 mph 89% 0 in 218 W/m2
08:00 63.7 °F 59.7 °F 30.1 in Calm   1 mph 87% 0 in 230 W/m2
08:05 64 °F 59.4 °F 30.1 in ENE 2 mph 2 mph 85% 0 in 199 W/m2
08:10 64.6 °F 59.7 °F 30.1 in Calm   1 mph 84% 0 in 137 W/m2
08:15 64.9 °F 59.7 °F 30.1 in Calm   1 mph 83% 0 in 98 W/m2
08:20 65.1 °F 59.9 °F 30.1 in Calm   1 mph 83% 0 in 98 W/m2
08:25 65.5 °F 59.9 °F 30.1 in ESE 0.9 mph 3 mph 82% 0 in 100 W/m2
08:30 65.8 °F 60.3 °F 30.1 in NE 0.9 mph 3 mph 82% 0 in 100 W/m2
08:35 66.2 °F 60.3 °F 30.1 in Calm     81% 0 in 100 W/m2
08:40 66.4 °F 60.4 °F 30.1 in WNW 0.9 mph 3 mph 81% 0 in 102 W/m2
08:45 66 °F 60.1 °F 30.1 in WNW 0.9 mph 2 mph 81% 0 in 104 W/m2
08:50 66.4 °F 60.4 °F 30.1 in West 0.9 mph 2 mph 81% 0 in 104 W/m2
08:55 66.6 °F 60.3 °F 30.1 in WNW 2.9 mph 3 mph 80% 0 in 105 W/m2
09:00 66.6 °F 59.9 °F 30.1 in WNW 2 mph 4 mph 79% 0 in 104 W/m2
09:05 66.7 °F 60.1 °F 30.1 in West 2 mph 3 mph 79% 0 in 141 W/m2
09:10 66.7 °F 59.7 °F 30.1 in NW 2 mph 4 mph 78% 0 in 271 W/m2
09:15 67.1 °F 60.8 °F 30.1 in Calm   3 mph 80% 0 in 422 W/m2
09:20 67.6 °F 61 °F 30.1 in SW 2 mph 2 mph 79% 0 in 452 W/m2
09:25 68.4 °F 60.8 °F 30.1 in Calm   3 mph 77% 0 in 462 W/m2
09:30 68.5 °F 60.6 °F 30.1 in Calm   3 mph 76% 0 in 475 W/m2
09:35 68.7 °F 60.1 °F 30.1 in Calm   1 mph 74% 0 in 492 W/m2
09:40 69.3 °F 61.3 °F 30.1 in NNW 0.9 mph 3 mph 76% 0 in 501 W/m2
09:45 69.4 °F 61.2 °F 30.1 in East 0.9 mph 2 mph 75% 0 in 520 W/m2
09:50 70 °F 61 °F 30.1 in ESE 2 mph 4 mph 73% 0 in 536 W/m2
09:55 70.5 °F 61 °F 30.1 in ENE 0.9 mph 3 mph 72% 0 in 538 W/m2
10:00 70.7 °F 60.8 °F 30.1 in Calm   4 mph 71% 0 in 561 W/m2
10:05 71.1 °F 61.2 °F 30.1 in Calm   3 mph 71% 0 in 116 W/m2
10:10 71.2 °F 61 °F 30.1 in ESE 4 mph 4 mph 70% 0 in 148 W/m2
10:15 71.4 °F 61.2 °F 30.1 in SE 2.9 mph 3 mph 70% 0 in 594 W/m2
10:20 71.6 °F 60.4 °F 30.1 in East 2 mph 4 mph 68% 0 in 608 W/m2
10:25 71.8 °F 61.5 °F 30.1 in ENE 2.9 mph 3 mph 70% 0 in 631 W/m2
10:30 72 °F 60.8 °F 30.1 in ESE 2 mph 8 mph 68% 0 in 633 W/m2
10:35 72.1 °F 60.6 °F 30.1 in ESE 0.9 mph 2 mph 67% 0 in 649 W/m2
10:40 72.5 °F 60.1 °F 30.1 in East 0.9 mph 8 mph 65% 0 in 666 W/m2
10:46 72.5 °F 60.1 °F 30.1 in North 2 mph 7 mph 65% 0 in 677 W/m2
10:51 72.7 °F 61.2 °F 30.1 in ESE 2 mph 4 mph 67% 0 in 670 W/m2
10:56 73 °F 61.5 °F 30.1 in East 2 mph 7 mph 67% 0 in 726 W/m2
11:01 73.8 °F 60.8 °F 30.1 in ENE 2 mph 6 mph 64% 0 in 703 W/m2
11:06 74.1 °F 60.8 °F 30.1 in West 0.9 mph 2 mph 63% 0 in 717 W/m2
11:11 74.1 °F 58.8 °F 30.1 in NNW 0.9 mph 6 mph 59% 0 in 719 W/m2
11:16 74.1 °F 57.9 °F 30.1 in West 4 mph 6 mph 57% 0 in 728 W/m2
11:21 73.8 °F 58.5 °F 30.1 in WNW 2 mph 6 mph 59% 0 in 738 W/m2
11:26 73.9 °F 59.2 °F 30.1 in SW 0.9 mph 4 mph 60% 0 in 729 W/m2
11:31 74.1 °F 59.4 °F 30.1 in SW 0.9 mph 6 mph 60% 0 in 724 W/m2
11:36 74.8 °F 59.5 °F 30.1 in NW 4 mph 5 mph 59% 0 in 756 W/m2
11:41 74.8 °F 60.1 °F 30.1 in Calm   6 mph 60% 0 in 793 W/m2
11:46 75 °F 59.7 °F 30.1 in North 2 mph 2 mph 59% 0 in 803 W/m2
11:51 75.6 °F 59.7 °F 30.1 in NW 2.9 mph 8 mph 58% 0 in 705 W/m2
11:56 75.6 °F 60.3 °F 30.1 in ENE 2 mph 5 mph 59% 0 in 772 W/m2
12:01 75.7 °F 59.9 °F 30.1 in NE 0.9 mph 8 mph 58% 0 in 805 W/m2
12:06 76.1 °F 60.8 °F 30.1 in NW 0.9 mph 5 mph 59% 0 in 786 W/m2
12:11 76.3 °F 62.2 °F 30.1 in NNE 0.9 mph 5 mph 62% 0 in 765 W/m2
12:16 76.6 °F 61.2 °F 30.1 in WNW 2 mph 3 mph 59% 0 in 828 W/m2
12:21 76.6 °F 60.8 °F 30.1 in North 2 mph 2 mph 58% 0 in 868 W/m2
12:26 77.2 °F 61.7 °F 30.1 in SE 0.9 mph 4 mph 59% 0 in 851 W/m2
12:31 77.9 °F 60.4 °F 30.1 in NE 2 mph 5 mph 55% 0 in 902 W/m2
12:36 77.7 °F 59.7 °F 30.1 in ENE 2.9 mph 7 mph 54% 0 in 248 W/m2
12:41 77.2 °F 61.3 °F 30.1 in Calm   1 mph 58% 0 in 264 W/m2
12:46 76.6 °F 59.2 °F 30.1 in West 6 mph 6 mph 55% 0 in 299 W/m2
12:51 76.1 °F 58.3 °F 30.1 in SW 0.9 mph 3 mph 54% 0 in 295 W/m2
12:56 76.1 °F 59.2 °F 30.1 in NNW 2.9 mph 5 mph 56% 0 in 376 W/m2
13:01 76.5 °F 59.5 °F 30.1 in West 2.9 mph 3 mph 56% 0 in 388 W/m2
13:06 76.6 °F 59.2 °F 30.1 in West 2.9 mph 4 mph 55% 0 in 1027 W/m2
13:11 76.6 °F 58.8 °F 30.1 in NNW 4.9 mph 7 mph 54% 0 in 313 W/m2
13:16 76.6 °F 58.8 °F 30.1 in NNW 2 mph 4 mph 54% 0 in 895 W/m2
13:21 77.2 °F 58.3 °F 30.1 in NW 2 mph 6 mph 52% 0 in 998 W/m2
13:26 77.5 °F 59 °F 30.1 in NW 2 mph 3 mph 53% 0 in 972 W/m2
13:31 77.7 °F 59.2 °F 30.1 in WNW 4.9 mph 9 mph 53% 0 in 756 W/m2
13:36 77.4 °F 58.3 °F 30.1 in West 4 mph 7 mph 52% 0 in 939 W/m2
13:41 77.4 °F 58.3 °F 30.1 in NNE 2 mph 4 mph 52% 0 in 960 W/m2
13:46 78.1 °F 58.5 °F 30.1 in West 2.9 mph 5 mph 51% 0 in 911 W/m2
13:51 78.4 °F 58.3 °F 30.1 in WNW 4.9 mph 9 mph 50% 0 in 875 W/m2
13:56 78.3 °F 59.2 °F 30.1 in West 2.9 mph 9 mph 52% 0 in 937 W/m2
14:01 78.3 °F 58.6 °F 30.1 in NNW 2 mph 4 mph 51% 0 in 926 W/m2
14:06 78.4 °F 58.8 °F 30.1 in NNE 4.9 mph 9 mph 51% 0 in 988 W/m2
14:11 78.6 °F 59 °F 30.1 in WSW 4 mph 4 mph 51% 0 in 998 W/m2
14:16 78.4 °F 58.3 °F 30.1 in NNW 2 mph 9 mph 50% 0 in 290 W/m2
14:21 78.1 °F 59 °F 30.1 in WNW 4 mph 8 mph 52% 0 in 392 W/m2
14:26 77.7 °F 58.1 °F 30.1 in NNW 2.9 mph 9 mph 51% 0 in 362 W/m2
14:31 77.7 °F 59.2 °F 30.1 in WNW 4 mph 6 mph 53% 0 in 309 W/m2
14:36 77.7 °F 60.3 °F 30.1 in WSW 0.9 mph 9 mph 55% 0 in 940 W/m2
14:41 78.3 °F 59.7 °F 30.1 in WSW 2.9 mph 7 mph 53% 0 in 939 W/m2
14:46 77.9 °F 58.8 °F 30.1 in West 6 mph 7 mph 52% 0 in 325 W/m2
14:51 78.1 °F 59.5 °F 30.1 in NNW 0.9 mph 4 mph 53% 0 in 893 W/m2
14:56 78.4 °F 59.4 °F 30.1 in West 2 mph 4 mph 52% 0 in 911 W/m2
15:01 78.8 °F 58.6 °F 30.1 in ENE 2 mph 5 mph 50% 0 in 921 W/m2
15:06 79.2 °F 60.1 °F 30.1 in West 2.9 mph 9 mph 52% 0 in 860 W/m2
15:11 79.3 °F 59 °F 30.1 in SSW 0.9 mph 6 mph 50% 0 in 889 W/m2
15:16 79.3 °F 59 °F 30.1 in West 2 mph 9 mph 50% 0 in 868 W/m2
15:21 79.3 °F 60.3 °F 30.1 in NNE 2 mph 6 mph 52% 0 in 830 W/m2
15:26 79 °F 58.8 °F 30.1 in West 0.9 mph 9 mph 50% 0 in 216 W/m2
15:31 78.6 °F 59 °F 30.1 in Calm   4 mph 51% 0 in 218 W/m2
15:36 78.4 °F 59.4 °F 30.1 in East 2 mph 8 mph 52% 0 in 853 W/m2
15:41 78.8 °F 60.3 °F 30.1 in ENE 0.9 mph 4 mph 53% 0 in 687 W/m2
15:46 79.2 °F 59.5 °F 30.1 in WNW 2.9 mph 6 mph 51% 0 in 768 W/m2
15:51 79 °F 58.8 °F 30.1 in WNW 0.9 mph 7 mph 50% 0 in 796 W/m2
15:56 79 °F 59.4 °F 30.1 in WNW 4 mph 6 mph 51% 0 in 197 W/m2
16:01 78.8 °F 59.2 °F 30.1 in WNW 6.9 mph 7 mph 51% 0 in 239 W/m2
16:06 78.6 °F 60.6 °F 30.1 in WNW 2.9 mph 5 mph 54% 0 in 874 W/m2
16:11 79 °F 59.9 °F 30.1 in North 2.9 mph 4 mph 52% 0 in 853 W/m2
16:16 79.3 °F 60.3 °F 30.1 in West 2 mph 4 mph 52% 0 in 209 W/m2
16:21 79.5 °F 60.8 °F 30.1 in North 2 mph 3 mph 53% 0 in 202 W/m2
16:26 79.3 °F 59.7 °F 30.1 in West 4 mph 4 mph 51% 0 in 260 W/m2
16:31 78.8 °F 58.6 °F 30.1 in NW 2 mph 6 mph 50% 0 in 269 W/m2
16:36 79 °F 59.9 °F 30.1 in WNW 0.9 mph 2 mph 52% 0 in 712 W/m2
16:41 79.5 °F 58.6 °F 30.1 in ENE 2 mph 6 mph 49% 0 in 714 W/m2
16:46 80.2 °F 59.4 °F 30.1 in NW 2 mph 5 mph 49% 0 in 719 W/m2
16:51 81 °F 60.6 °F 30.1 in North 0.9 mph 3 mph 50% 0 in 729 W/m2
16:56 81.1 °F 59.5 °F 30.1 in ESE 0.9 mph 8 mph 48% 0 in 679 W/m2
17:01 80.8 °F 59.9 °F 30.1 in NW 2 mph 9 mph 49% 0 in 181 W/m2
17:06 79.9 °F 59 °F 30.1 in NNW 2.9 mph 6 mph 49% 0 in 163 W/m2
17:11 79.3 °F 59.7 °F 30.1 in NE 0.9 mph 2 mph 51% 0 in 151 W/m2
17:16 79.2 °F 60.1 °F 30.1 in WNW 2.9 mph 5 mph 52% 0 in 127 W/m2
17:21 78.6 °F 59 °F 30.1 in WNW 0.9 mph 2 mph 51% 0 in 144 W/m2
17:26 78.6 °F 59.5 °F 30.1 in SW 0.9 mph 2 mph 52% 0 in 149 W/m2
17:32 78.4 °F 59.4 °F 30.1 in West 4 mph 4 mph 52% 0 in 163 W/m2
17:37 78.3 °F 59.2 °F 30.1 in West 2 mph 5 mph 52% 0 in 526 W/m2
17:42 78.6 °F 59.5 °F 30.1 in WNW 4 mph 5 mph 52% 0 in 559 W/m2
17:47 78.6 °F 59 °F 30.1 in WNW 4.9 mph 5 mph 51% 0 in 499 W/m2
17:52 79 °F 59.9 °F 30.1 in West 2 mph 3 mph 52% 0 in 570 W/m2
17:57 79.5 °F 59.7 °F 30.1 in West 2.9 mph 6 mph 51% 0 in 371 W/m2
18:02 79.7 °F 59.9 °F 30.1 in WSW 4.9 mph 5 mph 51% 0 in 483 W/m2
18:07 79.5 °F 58.6 °F 30.1 in WSW 2.9 mph 6 mph 49% 0 in 301 W/m2
18:12 79.5 °F 59.2 °F 30.1 in WSW 4 mph 6 mph 50% 0 in 455 W/m2
18:17 79.5 °F 60.4 °F 30.1 in WSW 2.9 mph 6 mph 52% 0 in 499 W/m2
18:22 79.5 °F 60.4 °F 30.1 in West 4 mph 8 mph 52% 0 in 381 W/m2
18:27 79 °F 59.4 °F 30.1 in West 2.9 mph 6 mph 51% 0 in 262 W/m2
18:32 78.6 °F 60.1 °F 30.1 in NW 2.9 mph 7 mph 53% 0 in 281 W/m2
18:37 78.6 °F 61.2 °F 30.1 in WNW 2 mph 7 mph 55% 0 in 378 W/m2
18:42 79 °F 61 °F 30.1 in WSW 4.9 mph 6 mph 54% 0 in 339 W/m2
18:47 78.6 °F 60.6 °F 30.1 in WNW 4 mph 7 mph 54% 0 in 186 W/m2
18:52 78.1 °F 60.6 °F 30.1 in WSW 4 mph 6 mph 55% 0 in 144 W/m2
18:57 77.4 °F 60.4 °F 30.1 in West 2.9 mph 4 mph 56% 0 in 135 W/m2
19:02 76.8 °F 60.4 °F 30.1 in WNW 0.9 mph 4 mph 57% 0 in 132 W/m2
19:07 76.6 °F 60.3 °F 30.1 in WSW 2 mph 6 mph 57% 0 in 223 W/m2
19:12 76.8 °F 60.4 °F 30.1 in WNW 2 mph 5 mph 57% 0 in 274 W/m2
19:17 77.4 °F 61 °F 30.1 in West 2.9 mph 3 mph 57% 0 in 267 W/m2
19:22 77.5 °F 60.6 °F 30.1 in WSW 2.9 mph 5 mph 56% 0 in 193 W/m2
19:27 77.5 °F 60.1 °F 30.1 in WNW 2 mph 4 mph 55% 0 in 93 W/m2
19:32 77.4 °F 61.3 °F 30.1 in West 0.9 mph 3 mph 58% 0 in 107 W/m2
19:37 77 °F 62.1 °F 30.1 in West 0.9 mph 2 mph 60% 0 in 183 W/m2
19:42 76.8 °F 61.9 °F 30.1 in Calm   3 mph 60% 0 in 91 W/m2
19:47 76.6 °F 61.2 °F 30.1 in West 0.9 mph 2 mph 59% 0 in 58 W/m2
19:52 76.5 °F 61 °F 30.1 in WSW 2.9 mph 4 mph 59% 0 in 49 W/m2
19:57 76.3 °F 61.3 °F 30.1 in WSW 0.9 mph 3 mph 60% 0 in 51 W/m2
20:02 75.9 °F 59.5 °F 30.1 in WSW 2 mph 4 mph 57% 0 in 60 W/m2
20:07 75.9 °F 60.6 °F 30.1 in WSW 2 mph 3 mph 59% 0 in 67 W/m2
20:12 75.7 °F 59.9 °F 30.1 in West 2 mph 4 mph 58% 0 in 72 W/m2
20:17 75.7 °F 60.4 °F 30.1 in West 2.9 mph 3 mph 59% 0 in 65 W/m2
20:22 75.7 °F 60.4 °F 30.1 in West 0.9 mph 3 mph 59% 0 in 42 W/m2
20:27 75.6 °F 60.3 °F 30.1 in West 2 mph 2 mph 59% 0 in 33 W/m2
20:32 75.4 °F 60.4 °F 30.1 in Calm   2 mph 60% 0 in 26 W/m2
20:37 75.4 °F 61.5 °F 30.1 in Calm     62% 0 in 23 W/m2
20:42 75.2 °F 61.7 °F 30.1 in Calm   1 mph 63% 0 in 18 W/m2
20:47 75 °F 61.2 °F 30.1 in West 2 mph 2 mph 62% 0 in 18 W/m2
20:52 74.8 °F 61.9 °F 30.1 in West 0.9 mph 2 mph 64% 0 in 14 W/m2
20:57 74.7 °F 62.1 °F 30.1 in West 0.9 mph 1 mph 65% 0 in 12 W/m2
21:02 74.3 °F 61.7 °F 30.1 in Calm   2 mph 65% 0 in 11 W/m2
21:07 73.8 °F 61.3 °F 30.1 in Calm     65% 0 in 7 W/m2
21:12 73.6 °F 61.5 °F 30.1 in Calm     66% 0 in 7 W/m2
21:17 73.2 °F 61.2 °F 30.1 in Calm     66% 0 in 5 W/m2
21:22 73 °F 61.5 °F 30.1 in Calm     67% 0 in 0 W/m2
21:27 73 °F 61.5 °F 30.1 in NW 2 mph 4 mph 67% 0 in 0 W/m2
21:32 72.9 °F 61.3 °F 30.1 in West 0.9 mph 2 mph 67% 0 in 0 W/m2
21:37 72.9 °F 61.7 °F 30.1 in WNW 2.9 mph 4 mph 68% 0 in 0 W/m2
21:42 73 °F 61.9 °F 30.1 in West 2 mph 2 mph 68% 0 in 0 W/m2
21:47 73 °F 61.9 °F 30.1 in WNW 2 mph 3 mph 68% 0 in 0 W/m2
21:52 73 °F 61.9 °F 30.1 in WNW 2.9 mph 6 mph 68% 0 in 0 W/m2
21:57 73 °F 61.9 °F 30.1 in West 2 mph 4 mph 68% 0 in 0 W/m2
22:02 73 °F 61.5 °F 30.1 in WSW 0.9 mph 3 mph 67% 0 in 0 W/m2
22:07 73 °F 61.5 °F 30.1 in WSW 2 mph 4 mph 67% 0 in 0 W/m2
22:12 73 °F 61.5 °F 30.1 in SW 2 mph 4 mph 67% 0 in 0 W/m2
22:17 73 °F 61.5 °F 30.1 in WSW 2.9 mph 4 mph 67% 0 in 0 W/m2
22:22 72.9 °F 61.3 °F 30.1 in West 2.9 mph 5 mph 67% 0 in 0 W/m2
22:27 72.9 °F 61.3 °F 30.1 in WSW 2.9 mph 6 mph 67% 0 in 0 W/m2
22:32 72.7 °F 61.2 °F 30.1 in WNW 2 mph 3 mph 67% 0 in 0 W/m2
22:37 72.5 °F 61.3 °F 30.1 in WNW 2 mph 6 mph 68% 0 in 0 W/m2
22:42 72.3 °F 61.2 °F 30.1 in WNW 2.9 mph 6 mph 68% 0 in 0 W/m2
22:47 72.1 °F 61.3 °F 30.1 in West 2 mph 6 mph 69% 0 in 0 W/m2
22:52 72 °F 61.2 °F 30.1 in West 2.9 mph 6 mph 69% 0 in 0 W/m2
22:57 71.8 °F 61 °F 30.1 in West 8.1 mph 8 mph 69% 0 in 0 W/m2
23:02 71.4 °F 60.8 °F 30.1 in West 2 mph 7 mph 69% 0 in 0 W/m2
23:07 71.2 °F 61 °F 30.1 in West 2.9 mph 9 mph 70% 0 in 0 W/m2
23:12 71.2 °F 61 °F 30.1 in West 2.9 mph 7 mph 70% 0 in 0 W/m2
23:17 70.9 °F 60.6 °F 30.1 in West 4 mph 9 mph 70% 0 in 0 W/m2
23:22 70.5 °F 60.6 °F 30.1 in West 4 mph 9 mph 71% 0 in 0 W/m2
23:27 70.5 °F 60.6 °F 30.1 in WNW 4 mph 6 mph 71% 0 in 0 W/m2
23:32 70.3 °F 60.4 °F 30.1 in West 2 mph 9 mph 71% 0 in 0 W/m2
23:37 70.2 °F 60.3 °F 30.1 in WNW 2.9 mph 4 mph 71% 0 in 0 W/m2
23:42 69.8 °F 60.4 °F 30.1 in West 2.9 mph 6 mph 72% 0 in 0 W/m2
23:47 69.4 °F 60.1 °F 30.1 in WSW 2 mph 5 mph 72% 0 in 0 W/m2
23:52 69.4 °F 60.1 °F 30.1 in West 2 mph 2 mph 72% 0 in 0 W/m2
23:57 69.3 °F 59.9 °F 30.1 in West 2 mph 3 mph 72% 0 in 0 W/m2
Juneau County Weather
Compliments of Weather Underground - 4 mb